createdAt,value
2023-04-18T00:02:07.216Z,13.23
2023-04-18T00:04:35.676Z,12.35
2023-04-18T00:07:04.132Z,14.15
2023-04-18T00:09:32.435Z,14.05
2023-04-18T00:12:01.630Z,14.93
2023-04-18T00:14:30.169Z,12.63
2023-04-18T00:16:58.522Z,13.80
2023-04-18T00:19:28.281Z,12.30
2023-04-18T00:21:58.080Z,12.67
2023-04-18T00:24:27.025Z,16.23
2023-04-18T00:26:55.513Z,15.48
2023-04-18T00:29:23.789Z,15.23
2023-04-18T00:31:52.073Z,12.40
2023-04-18T00:34:20.437Z,10.43
2023-04-18T00:36:50.062Z,13.70
2023-04-18T00:39:18.295Z,14.38
2023-04-18T00:41:46.650Z,13.55
2023-04-18T00:44:15.067Z,16.30
2023-04-18T00:46:43.382Z,17.65
2023-04-18T00:49:12.971Z,14.52
2023-04-18T00:51:41.374Z,18.88
2023-04-18T00:54:13.454Z,14.77
2023-04-18T00:56:42.145Z,14.15
2023-04-18T00:59:10.785Z,21.70
2023-04-18T01:01:40.313Z,15.98
2023-04-18T01:04:09.429Z,24.95
2023-04-18T01:06:38.000Z,20.77
2023-04-18T01:09:06.663Z,18.48
2023-04-18T01:11:36.380Z,22.25
2023-04-18T01:14:05.929Z,20.50
2023-04-18T01:16:34.827Z,19.48
2023-04-18T01:19:03.729Z,22.33
2023-04-18T01:21:33.930Z,19.02
2023-04-18T01:24:09.293Z,21.10
2023-04-18T01:26:37.590Z,23.77
2023-04-18T01:29:06.313Z,22.58
2023-04-18T01:31:36.079Z,23.50
2023-04-18T01:34:04.431Z,22.20
2023-04-18T01:36:33.158Z,25.05
2023-04-18T01:39:01.833Z,24.15
2023-04-18T01:41:32.880Z,24.67
2023-04-18T01:44:01.817Z,25.17
2023-04-18T01:46:30.168Z,22.63
2023-04-18T01:49:00.768Z,12.38
2023-04-18T01:53:57.141Z,18.70
2023-04-18T01:56:25.370Z,23.35
2023-04-18T01:58:54.957Z,26.48
2023-04-18T02:01:23.307Z,24.08
2023-04-18T02:03:51.783Z,24.70
2023-04-18T02:06:20.248Z,23.33
2023-04-18T02:08:48.539Z,26.80
2023-04-18T02:11:16.822Z,23.35
2023-04-18T02:13:45.054Z,26.75
2023-04-18T02:16:14.866Z,28.85
2023-04-18T02:18:44.778Z,24.15
2023-04-18T02:21:13.230Z,28.67
2023-04-18T02:23:41.608Z,27.02
2023-04-18T02:26:09.889Z,24.45
2023-04-18T02:28:39.193Z,26.95
2023-04-18T02:31:14.481Z,18.92
2023-04-18T02:33:45.395Z,23.13
2023-04-18T02:36:13.804Z,25.60
2023-04-18T02:38:42.173Z,23.92
2023-04-18T02:41:14.998Z,21.08
2023-04-18T02:43:43.744Z,19.45
2023-04-18T02:46:12.030Z,16.33
2023-04-18T02:48:40.342Z,26.77
2023-04-18T02:51:10.840Z,19.05
2023-04-18T02:53:39.120Z,23.48
2023-04-18T02:56:08.485Z,28.13
2023-04-18T02:58:37.000Z,20.60
2023-04-18T03:01:05.321Z,19.00
2023-04-18T03:03:33.634Z,24.20
2023-04-18T03:06:01.940Z,22.10
2023-04-18T03:08:31.579Z,27.20
2023-04-18T03:11:00.035Z,24.40
2023-04-18T03:13:28.277Z,26.23
2023-04-18T03:15:56.503Z,27.17
2023-04-18T03:18:24.814Z,26.80
2023-04-18T03:20:53.220Z,24.92
2023-04-18T03:23:21.943Z,18.25
2023-04-18T03:25:51.564Z,25.58
2023-04-18T03:28:19.890Z,20.38
2023-04-18T03:30:48.215Z,30.45
2023-04-18T03:33:17.134Z,28.90
2023-04-18T03:35:45.465Z,24.85
2023-04-18T03:38:13.669Z,26.40
2023-04-18T03:40:44.541Z,30.02
2023-04-18T03:43:14.673Z,26.90
2023-04-18T03:45:44.104Z,20.67
2023-04-18T03:48:12.426Z,23.55
2023-04-18T03:50:40.910Z,23.30
2023-04-18T03:53:09.134Z,27.05
2023-04-18T03:55:37.503Z,27.83
2023-04-18T03:58:05.769Z,27.88
2023-04-18T04:00:35.488Z,29.38
2023-04-18T04:03:04.001Z,21.63
2023-04-18T04:05:32.403Z,29.88
2023-04-18T04:08:00.647Z,29.52
2023-04-18T04:10:29.054Z,29.35
2023-04-18T04:12:57.338Z,26.20
2023-04-18T04:15:25.562Z,27.60
2023-04-18T04:17:55.232Z,23.70
2023-04-18T04:20:24.837Z,18.43
2023-04-18T04:22:53.993Z,28.17
2023-04-18T04:25:23.930Z,23.17
2023-04-18T04:27:53.700Z,17.45
2023-04-18T04:30:22.737Z,20.57
2023-04-18T04:32:51.121Z,27.65
2023-04-18T04:35:22.402Z,19.65
2023-04-18T04:37:51.728Z,24.30
2023-04-18T04:40:20.106Z,27.65
2023-04-18T04:42:49.206Z,30.10
2023-04-18T04:45:17.668Z,30.25
2023-04-18T04:47:46.000Z,31.02
2023-04-18T04:50:15.827Z,28.83
2023-04-18T04:52:45.573Z,23.77
2023-04-18T04:55:13.978Z,28.53
2023-04-18T04:57:42.248Z,28.58
2023-04-18T05:00:13.715Z,20.40
2023-04-18T05:02:41.998Z,17.58
2023-04-18T05:05:10.680Z,31.75
2023-04-18T05:07:38.939Z,33.60
2023-04-18T05:10:14.379Z,27.00
2023-04-18T05:12:42.790Z,23.92
2023-04-18T05:15:12.375Z,26.85
2023-04-18T05:17:40.722Z,25.90
2023-04-18T05:20:10.416Z,31.63
2023-04-18T05:22:38.730Z,30.23
2023-04-18T05:25:09.442Z,30.48
2023-04-18T05:27:37.678Z,21.00
2023-04-18T05:30:07.024Z,28.80
2023-04-18T05:32:35.327Z,21.85
2023-04-18T05:35:03.770Z,30.25
2023-04-18T05:37:32.077Z,21.55
2023-04-18T05:40:01.071Z,22.63
2023-04-18T05:42:30.886Z,26.15
2023-04-18T05:44:59.317Z,28.33
2023-04-18T05:47:28.632Z,30.75
2023-04-18T05:49:57.000Z,20.67
2023-04-18T05:52:26.133Z,23.33
2023-04-18T05:54:54.431Z,31.10
2023-04-18T05:57:22.697Z,22.15
2023-04-18T05:59:52.384Z,25.20
2023-04-18T06:02:21.160Z,19.10
2023-04-18T06:04:50.051Z,26.15
2023-04-18T06:07:18.421Z,24.77
2023-04-18T06:09:46.758Z,21.55
2023-04-18T06:12:15.034Z,27.48
2023-04-18T06:14:43.332Z,26.98
2023-04-18T06:17:13.991Z,24.15
2023-04-18T06:22:10.277Z,24.75
2023-04-18T06:24:38.556Z,12.98
2023-04-18T06:27:09.376Z,23.85
2023-04-18T06:29:43.867Z,27.73
2023-04-18T06:32:13.462Z,31.63
2023-04-18T06:34:41.726Z,28.20
2023-04-18T06:37:09.977Z,21.52
2023-04-18T06:39:38.263Z,22.30
2023-04-18T06:42:06.620Z,23.13
2023-04-18T06:44:36.004Z,25.80
2023-04-18T06:47:04.362Z,24.35
2023-04-18T06:49:33.962Z,27.35
2023-04-18T06:52:02.277Z,26.15
2023-04-18T06:54:30.592Z,26.65
2023-04-18T06:56:58.812Z,25.13
2023-04-18T06:59:27.101Z,28.35
2023-04-18T07:01:55.390Z,22.73
2023-04-18T07:04:23.826Z,18.95
2023-04-18T07:06:54.065Z,23.02
2023-04-18T07:09:22.766Z,31.30
2023-04-18T07:11:52.684Z,26.80
2023-04-18T07:14:23.692Z,26.20
2023-04-18T07:16:52.002Z,24.92
2023-04-18T07:19:20.298Z,18.05
2023-04-18T07:21:48.705Z,18.38
2023-04-18T07:24:18.331Z,19.15
2023-04-18T07:26:46.570Z,23.30
2023-04-18T07:29:14.835Z,30.90
2023-04-18T07:31:43.065Z,21.52
2023-04-18T07:34:11.751Z,17.23
2023-04-18T07:36:40.314Z,22.55
2023-04-18T07:39:08.592Z,18.20
2023-04-18T07:41:38.234Z,22.25
2023-04-18T07:44:06.698Z,23.13
2023-04-18T07:46:35.091Z,25.80
2023-04-18T07:49:03.620Z,23.20
2023-04-18T07:51:32.339Z,27.50
2023-04-18T07:54:00.705Z,21.33
2023-04-18T07:56:43.807Z,18.45
2023-04-18T07:59:13.837Z,16.58
2023-04-18T08:01:42.269Z,17.50
2023-04-18T08:04:11.019Z,22.70
2023-04-18T08:06:39.558Z,22.63
2023-04-18T08:09:08.217Z,19.15
2023-04-18T08:11:36.545Z,19.30
2023-04-18T08:14:04.780Z,19.35
2023-04-18T08:16:34.442Z,20.75
2023-04-18T08:19:02.718Z,18.97
2023-04-18T08:21:31.129Z,23.08
2023-04-18T08:23:59.715Z,24.85
2023-04-18T08:26:28.205Z,23.50
2023-04-18T08:28:56.564Z,17.33
2023-04-18T08:31:25.020Z,20.25
2023-04-18T08:33:54.811Z,96.32
2023-04-18T08:36:24.876Z,23.55
2023-04-18T08:38:53.306Z,22.23
2023-04-18T08:41:23.170Z,20.77
2023-04-18T08:43:51.854Z,21.40
2023-04-18T08:46:20.230Z,18.55
2023-04-18T08:48:51.315Z,22.88
2023-04-18T08:51:21.609Z,21.40
2023-04-18T08:53:50.616Z,19.88
2023-04-18T08:56:22.386Z,19.73
2023-04-18T08:58:50.870Z,19.45
2023-04-18T09:01:19.159Z,20.17
2023-04-18T09:03:47.670Z,18.80
2023-04-18T09:06:19.362Z,21.35
2023-04-18T09:08:59.134Z,12.18
2023-04-18T09:11:29.007Z,15.05
2023-04-18T09:14:10.905Z,19.30
2023-04-18T09:16:47.215Z,17.95
2023-04-18T09:19:18.895Z,17.73
2023-04-18T09:21:48.706Z,16.70
2023-04-18T09:24:24.115Z,14.25
2023-04-18T09:26:53.679Z,19.27
2023-04-18T09:29:23.433Z,17.08
2023-04-18T09:31:57.329Z,13.57
2023-04-18T09:34:26.466Z,15.68
2023-04-18T09:37:08.427Z,16.65
2023-04-18T09:39:38.836Z,18.65
2023-04-18T09:42:08.014Z,14.88
2023-04-18T09:44:36.346Z,17.83
2023-04-18T09:47:04.636Z,12.35
2023-04-18T09:49:33.751Z,15.13
2023-04-18T09:52:04.685Z,16.23
2023-04-18T09:54:34.383Z,16.42
2023-04-18T09:57:05.062Z,16.30
2023-04-18T09:59:43.066Z,10.50
2023-04-18T10:02:16.448Z,14.23
2023-04-18T10:04:45.726Z,12.68
2023-04-18T10:07:14.373Z,13.77
2023-04-18T10:09:51.847Z,16.73
2023-04-18T10:12:21.941Z,12.52
2023-04-18T10:14:54.812Z,15.00
2023-04-18T10:17:23.180Z,13.10
2023-04-18T10:20:08.021Z,14.25
2023-04-18T10:22:36.626Z,12.90
2023-04-18T10:25:06.222Z,16.15
2023-04-18T10:28:01.259Z,13.63
2023-04-18T10:30:55.050Z,13.85
2023-04-18T10:33:30.822Z,14.38
2023-04-18T10:36:06.153Z,16.50
2023-04-18T10:38:35.346Z,14.68
2023-04-18T10:41:17.258Z,11.48
2023-04-18T10:44:22.719Z,13.10
2023-04-18T10:47:22.212Z,15.73
2023-04-18T10:49:58.313Z,13.20
2023-04-18T10:52:26.918Z,15.77
2023-04-18T10:55:02.635Z,13.65
2023-04-18T10:57:39.167Z,13.93
2023-04-18T11:00:13.196Z,13.50
2023-04-18T11:02:49.294Z,11.75
2023-04-18T11:05:22.692Z,13.88
2023-04-18T11:07:51.186Z,15.13
2023-04-18T11:10:20.979Z,13.48
2023-04-18T11:12:49.573Z,12.75
2023-04-18T11:15:22.112Z,12.48
2023-04-18T11:17:58.527Z,10.93
2023-04-18T11:20:26.933Z,14.23
2023-04-18T11:22:56.654Z,11.40
2023-04-18T11:25:27.526Z,13.70
2023-04-18T11:27:56.196Z,12.93
2023-04-18T11:30:26.102Z,16.20
2023-04-18T11:32:55.072Z,11.05
2023-04-18T11:35:23.497Z,12.40
2023-04-18T11:37:52.057Z,7.47
2023-04-18T11:40:20.424Z,11.93
2023-04-18T11:42:48.680Z,9.98
2023-04-18T11:45:17.165Z,9.77
2023-04-18T11:47:47.407Z,10.90
2023-04-18T11:50:15.749Z,9.75
2023-04-18T11:52:44.058Z,10.80
2023-04-18T11:55:17.881Z,6.53
2023-04-18T11:57:53.935Z,7.15
2023-04-18T12:00:33.629Z,12.95
2023-04-18T12:03:13.346Z,12.40
2023-04-18T12:05:43.279Z,13.90
2023-04-18T12:08:13.228Z,18.23
2023-04-18T12:10:47.723Z,14.65
2023-04-18T12:13:16.266Z,15.07
2023-04-18T12:15:45.705Z,12.50
2023-04-18T12:18:16.806Z,13.65
2023-04-18T12:20:50.383Z,14.95
2023-04-18T12:23:35.550Z,18.70
2023-04-18T12:26:04.927Z,12.93
2023-04-18T12:28:34.301Z,16.10
2023-04-18T12:31:02.738Z,14.68
2023-04-18T12:33:32.779Z,12.30
2023-04-18T12:36:01.065Z,15.10
2023-04-18T12:38:29.439Z,17.88
2023-04-18T12:40:57.786Z,16.83
2023-04-18T12:43:26.615Z,13.70
2023-04-18T12:45:55.234Z,14.43
2023-04-18T12:48:23.491Z,14.38
2023-04-18T12:50:53.228Z,15.88
2023-04-18T12:53:21.633Z,15.27
2023-04-18T12:55:50.029Z,15.80
2023-04-18T12:58:20.597Z,14.13
2023-04-18T13:03:17.375Z,14.45
2023-04-18T13:05:46.097Z,15.57
2023-04-18T13:08:17.952Z,13.25
2023-04-18T13:10:47.689Z,12.82
2023-04-18T13:13:16.260Z,9.57
2023-04-18T13:15:44.594Z,9.75
2023-04-18T13:18:12.784Z,8.95
2023-04-18T13:20:41.108Z,8.65
2023-04-18T13:23:09.373Z,7.00
2023-04-18T13:25:39.404Z,10.95
2023-04-18T13:28:07.722Z,10.00
2023-04-18T13:30:36.632Z,8.82
2023-04-18T13:33:05.036Z,10.00
2023-04-18T13:35:33.359Z,9.45
2023-04-18T13:38:01.567Z,8.55
2023-04-18T13:40:29.883Z,11.68
2023-04-18T13:42:59.491Z,8.02
2023-04-18T13:45:27.783Z,8.43
2023-04-18T13:47:56.087Z,7.97
2023-04-18T13:50:24.507Z,8.57
2023-04-18T13:52:54.500Z,10.95
2023-04-18T13:55:22.935Z,9.07
2023-04-18T13:57:51.318Z,9.77
2023-04-18T14:00:21.624Z,10.55
2023-04-18T14:02:50.401Z,11.93
2023-04-18T14:05:18.877Z,11.18
2023-04-18T14:07:48.540Z,9.32
2023-04-18T14:10:16.906Z,11.17
2023-04-18T14:12:45.270Z,11.77
2023-04-18T14:15:13.550Z,14.18
2023-04-18T14:17:45.458Z,8.95
2023-04-18T14:20:15.692Z,9.52
2023-04-18T14:22:43.974Z,13.27
2023-04-18T14:25:12.379Z,12.05
2023-04-18T14:27:40.733Z,11.55
2023-04-18T14:30:10.285Z,11.60
2023-04-18T14:32:38.602Z,12.80
2023-04-18T14:35:09.459Z,12.73
2023-04-18T14:37:37.734Z,13.95
2023-04-18T14:40:08.200Z,14.23
2023-04-18T14:42:36.476Z,13.40
2023-04-18T14:45:05.570Z,11.57
2023-04-18T14:47:34.834Z,14.52
2023-04-18T14:50:03.261Z,13.82
2023-04-18T14:52:32.944Z,15.52
2023-04-18T14:55:01.244Z,15.63
2023-04-18T14:57:29.512Z,12.95
2023-04-18T14:59:57.800Z,11.32
2023-04-18T15:02:26.308Z,12.35
2023-04-18T15:04:55.085Z,11.27
2023-04-18T15:07:23.397Z,12.70
2023-04-18T15:09:53.335Z,11.60
2023-04-18T15:12:21.555Z,9.95
2023-04-18T15:14:49.846Z,13.27
2023-04-18T15:17:18.154Z,10.18
2023-04-18T15:19:46.416Z,12.00
2023-04-18T15:22:14.751Z,9.45
2023-04-18T15:24:43.068Z,11.10
2023-04-18T15:27:12.892Z,9.80
2023-04-18T15:29:41.154Z,9.18
2023-04-18T15:32:10.121Z,9.60
2023-04-18T15:34:38.416Z,10.98
2023-04-18T15:37:07.055Z,10.85
2023-04-18T15:39:35.487Z,11.32
2023-04-18T15:42:03.825Z,10.88
2023-04-18T15:44:33.440Z,10.65
2023-04-18T15:47:01.895Z,11.52
2023-04-18T15:49:30.281Z,11.18
2023-04-18T15:51:58.631Z,10.88
2023-04-18T15:54:27.104Z,10.10
2023-04-18T15:56:55.567Z,12.82
2023-04-18T15:59:23.828Z,10.85
2023-04-18T16:01:53.496Z,13.77
2023-04-18T16:04:21.899Z,11.63
2023-04-18T16:06:50.261Z,12.55
2023-04-18T16:09:18.548Z,9.15
2023-04-18T16:11:46.831Z,11.43
2023-04-18T16:14:15.263Z,10.93
2023-04-18T16:16:43.733Z,11.98
2023-04-18T16:19:14.312Z,9.82
2023-04-18T16:24:10.675Z,9.18
2023-04-18T16:26:38.894Z,12.18
2023-04-18T16:29:07.181Z,9.38
2023-04-18T16:31:35.601Z,12.10
2023-04-18T16:34:04.179Z,15.20
2023-04-18T16:36:35.683Z,12.55
2023-04-18T16:39:04.704Z,12.48
2023-04-18T16:41:33.051Z,13.02
2023-04-18T16:44:01.313Z,11.48
2023-04-18T16:46:32.324Z,12.07
2023-04-18T16:49:01.577Z,8.90
2023-04-18T16:51:29.890Z,8.07
2023-04-18T16:53:59.524Z,12.52
2023-04-18T16:56:27.787Z,9.68
2023-04-18T16:58:56.116Z,10.65
2023-04-18T17:01:24.414Z,10.85
2023-04-18T17:03:52.923Z,10.95
2023-04-18T17:06:22.820Z,13.65
2023-04-18T17:08:53.441Z,10.00
2023-04-18T17:13:51.456Z,11.35
2023-04-18T17:16:19.792Z,10.65
2023-04-18T17:18:48.077Z,8.43
2023-04-18T17:21:16.357Z,11.75
2023-04-18T17:23:44.665Z,11.18
2023-04-18T17:26:13.005Z,10.90
2023-04-18T17:28:43.020Z,11.15
2023-04-18T17:31:11.615Z,10.25
2023-04-18T17:33:39.970Z,13.52
2023-04-18T17:36:08.766Z,8.65
2023-04-18T17:38:37.116Z,11.15
2023-04-18T17:41:05.811Z,10.20
2023-04-18T17:43:34.126Z,11.95
2023-04-18T17:46:04.009Z,12.82
2023-04-18T17:48:32.337Z,11.90
2023-04-18T17:51:00.733Z,14.55
2023-04-18T17:53:31.583Z,11.70
2023-04-18T17:56:00.628Z,13.77
2023-04-18T17:58:29.388Z,13.95
2023-04-18T18:00:57.732Z,12.02
2023-04-18T18:03:27.693Z,11.35
2023-04-18T18:05:56.079Z,13.02
2023-04-18T18:08:24.361Z,12.57
2023-04-18T18:10:52.671Z,11.18
2023-04-18T18:13:20.729Z,13.77
2023-04-18T18:15:48.823Z,12.63
2023-04-18T18:18:17.052Z,11.93
2023-04-18T18:20:46.695Z,14.23
2023-04-18T18:23:14.952Z,16.45
2023-04-18T18:25:43.363Z,12.93
2023-04-18T18:28:11.793Z,12.20
2023-04-18T18:30:40.032Z,9.07
2023-04-18T18:33:08.372Z,18.67
2023-04-18T18:35:37.040Z,12.65
2023-04-18T18:38:07.202Z,15.65
2023-04-18T18:40:35.600Z,13.32
2023-04-18T18:43:03.872Z,12.98
2023-04-18T18:45:32.107Z,11.80
2023-04-18T18:48:00.542Z,11.23
2023-04-18T18:50:28.826Z,10.45
2023-04-18T18:52:57.105Z,7.05
2023-04-18T18:55:26.887Z,10.50
2023-04-18T18:57:55.356Z,11.02
2023-04-18T19:00:23.821Z,13.10
2023-04-18T19:02:52.360Z,12.45
2023-04-18T19:05:21.179Z,11.70
2023-04-18T19:07:51.457Z,11.15
2023-04-18T19:10:19.861Z,13.02
2023-04-18T19:12:49.748Z,12.43
2023-04-18T19:15:18.084Z,15.13
2023-04-18T19:17:46.356Z,12.88
2023-04-18T19:20:14.673Z,14.35
2023-04-18T19:22:43.019Z,17.25
2023-04-18T19:25:11.572Z,12.23
2023-04-18T19:27:39.871Z,10.10
2023-04-18T19:30:10.701Z,12.57
2023-04-18T19:32:39.033Z,12.90
2023-04-18T19:35:09.878Z,11.25
2023-04-18T19:37:38.158Z,13.65
2023-04-18T19:40:07.781Z,14.35
2023-04-18T19:42:36.034Z,18.85
2023-04-18T19:45:04.866Z,15.43
2023-04-18T19:47:34.762Z,12.60
2023-04-18T19:50:03.117Z,13.98
2023-04-18T19:52:31.345Z,13.05
2023-04-18T19:54:59.568Z,14.88
2023-04-18T19:57:29.023Z,15.35
2023-04-18T19:59:57.272Z,16.10
2023-04-18T20:02:25.625Z,16.05
2023-04-18T20:04:55.401Z,13.63
2023-04-18T20:07:26.251Z,12.18
2023-04-18T20:09:54.687Z,16.60
2023-04-18T20:12:23.450Z,13.40
2023-04-18T20:14:51.916Z,14.95
2023-04-18T20:17:20.424Z,14.73
2023-04-18T20:19:49.735Z,16.30
2023-04-18T20:22:19.793Z,13.40
2023-04-18T20:24:48.779Z,15.88
2023-04-18T20:27:20.356Z,12.82
2023-04-18T20:29:48.692Z,14.50
2023-04-18T20:32:17.007Z,15.07
2023-04-18T20:34:45.759Z,12.85
2023-04-18T20:37:15.545Z,15.57
2023-04-18T20:39:45.587Z,15.88
2023-04-18T20:42:14.767Z,16.10
2023-04-18T20:44:44.783Z,14.77
2023-04-18T20:47:15.242Z,14.30
2023-04-18T20:49:44.092Z,14.32
2023-04-18T20:52:14.361Z,16.02
2023-04-18T20:54:42.829Z,14.80
2023-04-18T20:57:12.427Z,15.73
2023-04-18T20:59:40.654Z,14.32
2023-04-18T21:02:09.437Z,15.20
2023-04-18T21:04:38.058Z,16.05
2023-04-18T21:07:06.430Z,12.18
2023-04-18T21:09:36.559Z,13.02
2023-04-18T21:12:05.834Z,12.57
2023-04-18T21:14:35.452Z,14.57
2023-04-18T21:17:03.816Z,11.57
2023-04-18T21:19:32.034Z,16.05
2023-04-18T21:22:00.277Z,16.95
2023-04-18T21:24:28.544Z,13.63
2023-04-18T21:26:57.730Z,14.43
2023-04-18T21:29:26.046Z,16.23
2023-04-18T21:31:55.927Z,15.85
2023-04-18T21:34:24.256Z,15.77
2023-04-18T21:36:52.504Z,17.85
2023-04-18T21:39:20.825Z,18.15
2023-04-18T21:41:49.090Z,15.40
2023-04-18T21:44:18.865Z,17.98
2023-04-18T21:46:47.185Z,17.45
2023-04-18T21:49:16.869Z,19.10
2023-04-18T21:51:45.870Z,17.97
2023-04-18T21:54:14.304Z,17.92
2023-04-18T21:56:42.910Z,15.82
2023-04-18T21:59:11.256Z,15.02
2023-04-18T22:01:39.629Z,15.25
2023-04-18T22:04:08.430Z,15.25
2023-04-18T22:06:38.106Z,14.45
2023-04-18T22:09:06.575Z,14.48
2023-04-18T22:11:34.906Z,15.75
2023-04-18T22:14:03.165Z,12.27
2023-04-18T22:16:33.386Z,14.13
2023-04-18T22:19:02.549Z,12.52
2023-04-18T22:21:31.383Z,12.90
2023-04-18T22:24:01.450Z,13.82
2023-04-18T22:26:30.199Z,12.75
2023-04-18T22:28:58.490Z,11.27
2023-04-18T22:31:26.804Z,11.23
2023-04-18T22:33:55.217Z,12.13
2023-04-18T22:36:23.471Z,11.95
2023-04-18T22:38:51.708Z,10.57
2023-04-18T22:41:21.275Z,12.05
2023-04-18T22:43:49.552Z,9.90
2023-04-18T22:46:17.846Z,9.20
2023-04-18T22:48:46.237Z,9.57
2023-04-18T22:51:14.888Z,9.70
2023-04-18T22:53:43.122Z,8.90
2023-04-18T22:56:11.461Z,10.45
2023-04-18T22:58:41.124Z,9.77
2023-04-18T23:01:09.460Z,11.60
2023-04-18T23:03:37.969Z,10.13
2023-04-18T23:06:08.132Z,10.27
2023-04-18T23:08:36.374Z,9.55
2023-04-18T23:11:04.658Z,10.23
2023-04-18T23:13:32.888Z,9.68
2023-04-18T23:16:02.528Z,10.50
2023-04-18T23:18:31.536Z,10.37
2023-04-18T23:21:00.812Z,10.63
2023-04-18T23:23:28.987Z,10.98
2023-04-18T23:25:57.361Z,10.50
2023-04-18T23:28:25.678Z,11.65
2023-04-18T23:30:53.937Z,8.85
2023-04-18T23:33:23.591Z,9.82
2023-04-18T23:35:51.863Z,11.47
2023-04-18T23:38:20.305Z,11.52
2023-04-18T23:40:48.550Z,10.43
2023-04-18T23:43:16.812Z,10.93
2023-04-18T23:45:45.355Z,12.85
2023-04-18T23:48:13.854Z,9.35
2023-04-18T23:50:48.072Z,12.32
2023-04-18T23:53:17.386Z,10.57
2023-04-18T23:55:46.152Z,9.75
2023-04-18T23:58:14.863Z,14.40
